createdAt,value
2023-03-28T00:01:13.826Z,61.20
2023-03-28T00:03:42.538Z,61.60
2023-03-28T00:06:12.915Z,63.90
2023-03-28T00:08:41.060Z,65.50
2023-03-28T00:11:35.068Z,65.40
2023-03-28T00:14:03.729Z,64.30
2023-03-28T00:16:34.161Z,63.70
2023-03-28T00:19:05.943Z,63.80
2023-03-28T00:21:36.920Z,65.40
2023-03-28T00:24:07.449Z,65.20
2023-03-28T00:26:36.940Z,63.60
2023-03-28T00:29:06.688Z,64.60
2023-03-28T00:31:35.333Z,64.40
2023-03-28T00:34:04.060Z,64.10
2023-03-28T00:36:32.992Z,62.70
2023-03-28T00:39:06.281Z,61.60
2023-03-28T00:41:39.895Z,61.10
2023-03-28T00:44:38.593Z,61.40
2023-03-28T00:47:12.045Z,59.40
2023-03-28T00:49:39.732Z,59.00
2023-03-28T00:52:08.635Z,58.80
2023-03-28T00:54:40.428Z,58.90
2023-03-28T00:57:09.702Z,59.10
2023-03-28T00:59:39.099Z,59.70
2023-03-28T01:02:07.550Z,60.20
2023-03-28T01:04:43.955Z,59.70
2023-03-28T01:07:25.402Z,59.90
2023-03-28T01:09:53.593Z,58.60
2023-03-28T01:12:22.695Z,59.00
2023-03-28T01:14:51.108Z,59.30
2023-03-28T01:17:19.930Z,58.50
2023-03-28T01:20:09.277Z,59.00
2023-03-28T01:23:04.301Z,59.90
2023-03-28T01:25:50.335Z,60.70
2023-03-28T01:28:33.416Z,62.80
2023-03-28T01:31:13.427Z,63.40
2023-03-28T01:34:25.091Z,64.40
2023-03-28T01:37:13.072Z,63.50
2023-03-28T01:40:18.474Z,63.30
2023-03-28T01:42:53.435Z,63.50
2023-03-28T01:45:41.095Z,63.40
2023-03-28T01:48:38.628Z,63.70
2023-03-28T01:51:31.184Z,63.90
2023-03-28T01:54:30.270Z,65.10
2023-03-28T01:57:01.478Z,65.20
2023-03-28T01:59:41.101Z,65.60
2023-03-28T02:02:42.304Z,65.90
2023-03-28T02:05:26.610Z,66.10
2023-03-28T02:07:56.144Z,66.40
2023-03-28T02:10:45.798Z,66.00
2023-03-28T02:13:40.463Z,66.10
2023-03-28T02:16:32.218Z,66.10
2023-03-28T02:19:06.460Z,66.60
2023-03-28T02:22:24.550Z,67.50
2023-03-28T02:25:01.555Z,65.00
2023-03-28T02:27:45.029Z,66.30
2023-03-28T02:30:36.113Z,66.00
2023-03-28T02:33:10.560Z,67.00
2023-03-28T02:35:55.596Z,63.90
2023-03-28T02:38:39.617Z,64.00
2023-03-28T02:41:19.813Z,62.90
2023-03-28T02:44:22.442Z,62.80
2023-03-28T02:47:14.291Z,64.00
2023-03-28T02:49:54.184Z,65.60
2023-03-28T02:52:37.084Z,65.20
2023-03-28T02:55:18.336Z,67.30
2023-03-28T02:58:02.379Z,71.40
2023-03-28T03:00:31.121Z,74.00
2023-03-28T03:02:58.883Z,75.10
2023-03-28T03:05:26.595Z,68.40
2023-03-28T03:07:54.252Z,69.70
2023-03-28T03:10:24.351Z,69.70
2023-03-28T03:12:52.084Z,68.60
2023-03-28T03:15:20.074Z,69.10
2023-03-28T03:18:01.336Z,70.80
2023-03-28T03:20:34.956Z,70.80
2023-03-28T03:23:04.189Z,70.40
2023-03-28T03:25:35.091Z,70.20
2023-03-28T03:28:17.783Z,71.00
2023-03-28T03:30:46.542Z,68.80
2023-03-28T03:33:43.705Z,65.50
2023-03-28T03:36:13.596Z,65.90
2023-03-28T03:38:42.324Z,66.10
2023-03-28T03:41:14.750Z,66.10
2023-03-28T03:43:42.957Z,64.10
2023-03-28T03:46:11.651Z,65.30
2023-03-28T03:48:39.621Z,64.90
2023-03-28T03:51:18.912Z,65.00
2023-03-28T03:53:50.886Z,63.90
2023-03-28T03:56:21.489Z,62.80
2023-03-28T03:59:00.070Z,64.70
2023-03-28T04:01:31.789Z,67.10
2023-03-28T04:04:11.771Z,63.90
2023-03-28T04:06:59.364Z,63.90
2023-03-28T04:09:28.891Z,64.50
2023-03-28T04:12:00.700Z,65.60
2023-03-28T04:14:28.733Z,64.80
2023-03-28T04:17:16.367Z,74.40
2023-03-28T04:19:45.761Z,66.30
2023-03-28T04:22:13.929Z,64.90
2023-03-28T04:24:50.071Z,65.80
2023-03-28T04:27:34.992Z,73.40
2023-03-28T04:30:04.199Z,62.80
2023-03-28T04:32:54.486Z,63.60
2023-03-28T04:35:29.835Z,63.20
2023-03-28T04:38:00.186Z,61.60
2023-03-28T04:40:28.345Z,60.40
2023-03-28T04:43:19.863Z,59.90
2023-03-28T04:45:51.066Z,58.60
2023-03-28T04:48:19.640Z,57.60
2023-03-28T04:50:47.774Z,58.00
2023-03-28T04:53:17.446Z,58.40
2023-03-28T04:56:05.997Z,60.20
2023-03-28T04:58:34.080Z,61.10
2023-03-28T05:01:04.134Z,61.80
2023-03-28T05:03:58.272Z,63.00
2023-03-28T05:06:26.439Z,64.50
2023-03-28T05:08:54.459Z,67.20
2023-03-28T05:11:27.010Z,68.90
2023-03-28T05:13:54.694Z,70.00
2023-03-28T05:16:33.400Z,70.30
2023-03-28T05:19:21.993Z,72.40
2023-03-28T05:22:12.906Z,72.40
2023-03-28T05:24:43.373Z,73.00
2023-03-28T05:27:18.895Z,72.80
2023-03-28T05:29:47.690Z,72.60
2023-03-28T05:32:15.755Z,72.70
2023-03-28T05:34:43.509Z,73.20
2023-03-28T05:37:11.495Z,73.40
2023-03-28T05:39:59.392Z,74.10
2023-03-28T05:42:27.173Z,75.20
2023-03-28T05:44:54.956Z,77.30
2023-03-28T05:47:22.725Z,78.10
2023-03-28T05:49:51.338Z,80.20
2023-03-28T05:52:21.656Z,77.70
2023-03-28T05:54:50.479Z,78.40
2023-03-28T05:57:21.652Z,77.60
2023-03-28T05:59:49.737Z,80.60
2023-03-28T06:02:22.553Z,80.70
2023-03-28T06:04:54.112Z,80.60
2023-03-28T06:07:35.236Z,81.20
2023-03-28T06:10:11.839Z,81.00
2023-03-28T06:13:05.899Z,79.00
2023-03-28T06:15:34.002Z,76.90
2023-03-28T06:18:01.773Z,78.80
2023-03-28T06:20:29.826Z,76.80
2023-03-28T06:22:57.520Z,76.50
2023-03-28T06:25:25.273Z,76.00
2023-03-28T06:27:53.093Z,77.10
2023-03-28T06:30:20.811Z,77.20
2023-03-28T06:32:51.711Z,74.30
2023-03-28T06:35:19.843Z,74.40
2023-03-28T06:37:47.426Z,75.20
2023-03-28T06:40:22.621Z,73.10
2023-03-28T06:42:50.603Z,73.50
2023-03-28T06:45:38.493Z,75.20
2023-03-28T06:48:11.151Z,74.10
2023-03-28T06:50:58.620Z,74.40
2023-03-28T06:53:27.788Z,75.60
2023-03-28T06:55:56.194Z,74.40
2023-03-28T06:58:25.004Z,74.90
2023-03-28T07:01:01.150Z,75.20
2023-03-28T07:03:30.343Z,73.90
2023-03-28T07:05:59.153Z,74.80
2023-03-28T07:08:27.321Z,71.20
2023-03-28T07:10:55.087Z,72.80
2023-03-28T07:13:23.081Z,74.60
2023-03-28T07:16:05.475Z,77.40
2023-03-28T07:18:33.812Z,76.20
2023-03-28T07:21:14.098Z,76.50
2023-03-28T07:23:42.829Z,80.00
2023-03-28T07:26:13.506Z,79.30
2023-03-28T07:28:41.920Z,79.40
2023-03-28T07:33:38.837Z,72.70
2023-03-28T07:36:14.536Z,71.60
2023-03-28T07:38:46.553Z,72.80
2023-03-28T07:41:16.054Z,72.60
2023-03-28T07:43:43.840Z,74.40
2023-03-28T07:46:14.619Z,74.70
2023-03-28T07:48:43.275Z,74.00
2023-03-28T07:51:12.318Z,74.80
2023-03-28T07:53:40.189Z,73.20
2023-03-28T07:56:10.754Z,74.30
2023-03-28T07:58:55.297Z,74.60
2023-03-28T08:01:23.091Z,76.90
2023-03-28T08:03:57.869Z,75.80
2023-03-28T08:06:34.279Z,75.10
2023-03-28T08:09:03.427Z,76.20
2023-03-28T08:11:39.908Z,75.60
2023-03-28T08:14:10.555Z,73.00
2023-03-28T08:16:39.399Z,75.30
2023-03-28T08:19:11.772Z,76.80
2023-03-28T08:22:05.857Z,74.80
2023-03-28T08:24:41.813Z,74.60
2023-03-28T08:27:15.751Z,70.70
2023-03-28T08:29:46.023Z,71.20
2023-03-28T08:32:14.616Z,72.60
2023-03-28T08:34:42.333Z,72.40
2023-03-28T08:37:15.577Z,73.30
2023-03-28T08:39:47.521Z,73.40
2023-03-28T08:42:44.289Z,72.40
2023-03-28T08:45:29.968Z,71.40
2023-03-28T08:48:16.578Z,72.90
2023-03-28T08:51:08.869Z,72.50
2023-03-28T08:53:42.412Z,66.70
2023-03-28T08:56:14.163Z,64.00
2023-03-28T08:59:02.114Z,63.40
2023-03-28T09:01:33.057Z,60.90
2023-03-28T09:04:02.552Z,59.60
2023-03-28T09:06:43.902Z,60.20
2023-03-28T09:09:34.807Z,58.40
2023-03-28T09:12:36.547Z,57.70
2023-03-28T09:15:08.276Z,56.30
2023-03-28T09:18:03.714Z,55.20
2023-03-28T09:21:04.436Z,56.90
2023-03-28T09:24:08.497Z,59.20
2023-03-28T09:26:42.158Z,59.90
2023-03-28T09:29:24.881Z,63.20
2023-03-28T09:32:02.066Z,58.10
2023-03-28T09:34:40.535Z,60.40
2023-03-28T09:37:25.575Z,62.10
2023-03-28T09:39:56.616Z,60.70
2023-03-28T09:42:38.599Z,61.50
2023-03-28T09:45:50.261Z,61.80
2023-03-28T09:48:48.269Z,62.50
2023-03-28T09:51:20.052Z,61.30
2023-03-28T09:53:48.480Z,59.80
2023-03-28T09:56:33.331Z,62.20
2023-03-28T09:59:30.863Z,62.40
2023-03-28T10:02:05.568Z,65.60
2023-03-28T10:04:39.476Z,68.40
2023-03-28T10:07:32.978Z,66.60
2023-03-28T10:10:20.466Z,65.80
2023-03-28T10:12:57.542Z,63.70
2023-03-28T10:15:41.497Z,62.70
2023-03-28T10:18:25.392Z,62.80
2023-03-28T10:21:24.269Z,56.80
2023-03-28T10:24:07.798Z,53.20
2023-03-28T10:26:37.091Z,55.70
2023-03-28T10:29:08.789Z,57.80
2023-03-28T10:31:39.815Z,55.60
2023-03-28T10:34:37.211Z,53.10
2023-03-28T10:37:27.653Z,53.80
2023-03-28T10:40:19.244Z,55.40
2023-03-28T10:43:13.120Z,55.10
2023-03-28T10:45:43.752Z,54.90
2023-03-28T10:48:20.944Z,54.90
2023-03-28T10:50:59.421Z,57.40
2023-03-28T10:53:49.427Z,56.90
2023-03-28T10:56:38.686Z,58.80
2023-03-28T10:59:17.828Z,58.00
2023-03-28T11:02:24.578Z,58.50
2023-03-28T11:05:18.431Z,57.30
2023-03-28T11:08:23.238Z,56.90
2023-03-28T11:11:05.418Z,54.80
2023-03-28T11:13:52.578Z,55.40
2023-03-28T11:16:32.182Z,53.50
2023-03-28T11:19:22.102Z,55.30
2023-03-28T11:22:07.778Z,53.50
2023-03-28T11:24:46.608Z,56.10
2023-03-28T11:28:19.492Z,54.40
2023-03-28T11:30:56.241Z,51.70
2023-03-28T11:33:51.112Z,53.00
2023-03-28T11:36:40.122Z,53.60
2023-03-28T11:39:29.109Z,52.50
2023-03-28T11:41:59.791Z,55.30
2023-03-28T11:45:09.487Z,52.20
2023-03-28T11:47:44.522Z,53.00
2023-03-28T11:50:19.092Z,53.10
2023-03-28T11:53:27.644Z,51.90
2023-03-28T11:56:10.162Z,53.70
2023-03-28T11:59:07.699Z,52.40
2023-03-28T12:01:42.275Z,52.90
2023-03-28T12:04:30.278Z,51.20
2023-03-28T12:07:10.583Z,51.90
2023-03-28T12:10:06.142Z,53.40
2023-03-28T12:12:57.545Z,50.20
2023-03-28T12:15:53.489Z,52.90
2023-03-28T12:18:46.303Z,52.30
2023-03-28T12:21:47.918Z,49.20
2023-03-28T12:24:29.982Z,51.20
2023-03-28T12:27:18.670Z,52.50
2023-03-28T12:30:05.075Z,47.30
2023-03-28T12:32:43.450Z,43.90
2023-03-28T12:35:25.714Z,43.90
2023-03-28T12:38:29.472Z,49.20
2023-03-28T12:41:25.262Z,48.40
2023-03-28T12:44:01.081Z,49.00
2023-03-28T12:46:47.394Z,48.50
2023-03-28T12:49:23.679Z,48.00
2023-03-28T12:51:57.164Z,46.70
2023-03-28T12:54:31.970Z,48.00
2023-03-28T12:57:10.021Z,51.90
2023-03-28T13:00:02.168Z,50.30
2023-03-28T13:03:08.270Z,47.50
2023-03-28T13:05:56.288Z,47.40
2023-03-28T13:08:35.812Z,43.60
2023-03-28T13:11:17.952Z,45.20
2023-03-28T13:14:23.327Z,44.00
2023-03-28T13:17:21.887Z,45.00
2023-03-28T13:20:10.693Z,42.30
2023-03-28T13:22:47.696Z,42.70
2023-03-28T13:25:29.671Z,44.00
2023-03-28T13:28:18.449Z,44.00
2023-03-28T13:30:46.915Z,44.10
2023-03-28T13:33:28.013Z,44.70
2023-03-28T13:35:58.958Z,44.40
2023-03-28T13:38:29.693Z,46.80
2023-03-28T13:41:07.040Z,46.90
2023-03-28T13:43:43.820Z,46.40
2023-03-28T13:46:17.287Z,44.50
2023-03-28T13:49:11.620Z,46.40
2023-03-28T13:52:00.705Z,44.20
2023-03-28T13:54:30.130Z,44.10
2023-03-28T13:57:08.419Z,45.00
2023-03-28T13:59:50.392Z,43.10
2023-03-28T14:02:34.529Z,43.10
2023-03-28T14:05:21.882Z,44.40
2023-03-28T14:07:51.665Z,42.00
2023-03-28T14:10:30.210Z,39.90
2023-03-28T14:13:05.784Z,40.10
2023-03-28T14:15:36.957Z,43.00
2023-03-28T14:18:04.888Z,41.10
2023-03-28T14:20:34.292Z,42.20
2023-03-28T14:23:02.185Z,43.90
2023-03-28T14:25:33.421Z,44.80
2023-03-28T14:28:11.320Z,46.00
2023-03-28T14:30:42.394Z,45.40
2023-03-28T14:33:12.802Z,45.80
2023-03-28T14:35:43.237Z,45.00
2023-03-28T14:38:26.642Z,46.40
2023-03-28T14:40:56.035Z,46.70
2023-03-28T14:43:30.746Z,47.30
2023-03-28T14:46:03.154Z,47.10
2023-03-28T14:48:31.294Z,47.30
2023-03-28T14:51:00.686Z,46.70
2023-03-28T14:53:30.509Z,46.50
2023-03-28T14:56:04.085Z,47.90
2023-03-28T14:58:35.435Z,46.60
2023-03-28T15:01:04.984Z,47.40
2023-03-28T15:03:40.339Z,48.00
2023-03-28T15:06:14.337Z,47.40
2023-03-28T15:08:44.085Z,48.70
2023-03-28T15:11:20.724Z,48.70
2023-03-28T15:14:01.536Z,48.40
2023-03-28T15:16:30.743Z,49.80
2023-03-28T15:19:09.524Z,48.70
2023-03-28T15:21:40.351Z,48.40
2023-03-28T15:24:14.757Z,48.30
2023-03-28T15:26:45.156Z,48.70
2023-03-28T15:29:18.576Z,49.60
2023-03-28T15:31:47.824Z,47.10
2023-03-28T15:34:24.403Z,48.30
2023-03-28T15:36:59.240Z,48.20
2023-03-28T15:39:29.966Z,47.80
2023-03-28T15:42:02.036Z,48.40
2023-03-28T15:44:34.840Z,49.10
2023-03-28T15:47:09.997Z,49.70
2023-03-28T15:49:38.636Z,48.90
2023-03-28T15:52:15.408Z,48.80
2023-03-28T15:54:46.883Z,49.10
2023-03-28T15:57:16.153Z,49.30
2023-03-28T15:59:48.794Z,48.40
2023-03-28T16:02:25.716Z,48.30
2023-03-28T16:05:06.969Z,49.70
2023-03-28T16:07:48.778Z,48.40
2023-03-28T16:10:22.473Z,48.60
2023-03-28T16:13:22.696Z,48.80
2023-03-28T16:16:16.375Z,49.50
2023-03-28T16:18:55.233Z,49.50
2023-03-28T16:21:22.988Z,49.90
2023-03-28T16:23:51.225Z,50.30
2023-03-28T16:26:18.997Z,50.70
2023-03-28T16:28:46.731Z,51.20
2023-03-28T16:31:15.828Z,51.60
2023-03-28T16:33:44.103Z,51.80
2023-03-28T16:36:13.422Z,52.20
2023-03-28T16:38:41.255Z,53.80
2023-03-28T16:41:09.454Z,54.20
2023-03-28T16:43:38.021Z,55.60
2023-03-28T16:46:06.208Z,56.00
2023-03-28T16:48:36.931Z,55.90
2023-03-28T16:51:05.323Z,55.90
2023-03-28T16:53:38.679Z,56.70
2023-03-28T16:56:11.486Z,56.70
2023-03-28T16:58:39.789Z,57.30
2023-03-28T17:01:12.685Z,57.80
2023-03-28T17:03:40.516Z,59.00
2023-03-28T17:06:09.875Z,59.10
2023-03-28T17:08:38.040Z,60.00
2023-03-28T17:11:11.293Z,59.80
2023-03-28T17:13:40.120Z,59.20
2023-03-28T17:16:09.270Z,59.90
2023-03-28T17:18:36.989Z,60.30
2023-03-28T17:21:11.302Z,60.00
2023-03-28T17:23:40.227Z,60.90
2023-03-28T17:26:09.853Z,60.10
2023-03-28T17:28:39.964Z,60.80
2023-03-28T17:31:13.433Z,62.00
2023-03-28T17:33:41.521Z,63.00
2023-03-28T17:36:24.819Z,64.40
2023-03-28T17:38:55.060Z,64.30
2023-03-28T17:41:23.490Z,65.00
2023-03-28T17:43:56.680Z,65.90
2023-03-28T17:46:25.095Z,65.90
2023-03-28T17:48:53.935Z,66.50
2023-03-28T17:51:21.689Z,66.40
2023-03-28T17:53:49.887Z,67.30
2023-03-28T17:56:17.818Z,66.90
2023-03-28T17:58:46.175Z,66.50
2023-03-28T18:01:16.716Z,67.20
2023-03-28T18:03:46.057Z,67.00
2023-03-28T18:06:43.317Z,67.20
2023-03-28T18:09:11.563Z,68.20
2023-03-28T18:11:39.611Z,69.30
2023-03-28T18:14:08.847Z,69.90
2023-03-28T18:16:38.910Z,69.50
2023-03-28T18:19:07.095Z,70.00
2023-03-28T18:21:35.310Z,69.60
2023-03-28T18:24:03.165Z,69.70
2023-03-28T18:26:31.851Z,70.30
2023-03-28T18:28:59.593Z,71.00
2023-03-28T18:31:28.436Z,69.50
2023-03-28T18:33:57.789Z,70.20
2023-03-28T18:36:31.132Z,71.60
2023-03-28T18:38:58.955Z,72.90
2023-03-28T18:41:27.536Z,73.00
2023-03-28T18:43:55.896Z,73.60
2023-03-28T18:46:26.233Z,73.90
2023-03-28T18:48:54.965Z,73.80
2023-03-28T18:51:23.238Z,74.10
2023-03-28T18:53:51.306Z,73.90
2023-03-28T18:56:19.110Z,73.80
2023-03-28T18:58:52.435Z,74.30
2023-03-28T19:01:20.999Z,75.60
2023-03-28T19:03:50.748Z,75.90
2023-03-28T19:06:19.800Z,76.20
2023-03-28T19:08:47.690Z,76.60
2023-03-28T19:11:16.981Z,75.60
2023-03-28T19:13:44.721Z,75.60
2023-03-28T19:16:15.189Z,76.00
2023-03-28T19:18:44.889Z,77.30
2023-03-28T19:21:13.228Z,78.10
2023-03-28T19:23:41.407Z,80.00
2023-03-28T19:26:11.706Z,79.90
2023-03-28T19:28:39.938Z,80.30
2023-03-28T19:31:10.209Z,80.70
2023-03-28T19:33:41.383Z,82.50
2023-03-28T19:36:10.818Z,84.70
2023-03-28T19:38:40.429Z,84.40
2023-03-28T19:41:17.691Z,84.20
2023-03-28T19:43:46.448Z,83.20
2023-03-28T19:46:22.150Z,80.30
2023-03-28T19:48:52.955Z,79.90
2023-03-28T19:51:21.048Z,80.50
2023-03-28T19:53:49.285Z,79.50
2023-03-28T19:56:19.051Z,79.00
2023-03-28T19:58:47.212Z,79.50
2023-03-28T20:01:15.361Z,78.60
2023-03-28T20:03:43.171Z,79.60
2023-03-28T20:06:14.376Z,80.90
2023-03-28T20:08:42.926Z,82.60
2023-03-28T20:11:12.413Z,85.10
2023-03-28T20:13:40.503Z,84.90
2023-03-28T20:16:10.106Z,85.90
2023-03-28T20:18:38.046Z,85.80
2023-03-28T20:21:08.697Z,86.00
2023-03-28T20:23:36.975Z,85.50
2023-03-28T20:26:19.123Z,85.50
2023-03-28T20:28:50.128Z,86.10
2023-03-28T20:31:19.357Z,85.10
2023-03-28T20:33:47.184Z,84.60
2023-03-28T20:36:15.010Z,86.20
2023-03-28T20:38:42.779Z,84.90
2023-03-28T20:41:12.220Z,84.70
2023-03-28T20:43:46.979Z,83.70
2023-03-28T20:46:19.872Z,85.30
2023-03-28T20:48:52.578Z,83.90
2023-03-28T20:51:23.138Z,84.30
2023-03-28T20:53:55.099Z,85.40
2023-03-28T20:56:24.099Z,86.90
2023-03-28T20:58:53.326Z,88.10
2023-03-28T21:01:26.389Z,87.60
2023-03-28T21:03:57.575Z,87.60
2023-03-28T21:06:33.697Z,88.10
2023-03-28T21:09:04.726Z,87.50
2023-03-28T21:11:34.669Z,87.10
2023-03-28T21:14:03.544Z,87.20
2023-03-28T21:16:32.702Z,89.60
2023-03-28T21:19:01.934Z,90.40
2023-03-28T21:21:30.382Z,90.50
2023-03-28T21:23:58.131Z,86.80
2023-03-28T21:26:26.533Z,85.60
2023-03-28T21:28:54.803Z,85.80
2023-03-28T21:31:28.663Z,85.20
2023-03-28T21:33:57.835Z,85.40
2023-03-28T21:36:29.384Z,84.20
2023-03-28T21:38:57.561Z,84.80
2023-03-28T21:41:27.526Z,85.50
2023-03-28T21:43:55.306Z,90.10
2023-03-28T21:46:23.276Z,86.30
2023-03-28T21:48:51.153Z,85.50
2023-03-28T21:51:18.953Z,86.90
2023-03-28T21:53:46.876Z,88.50
2023-03-28T21:56:16.558Z,88.60
2023-03-28T21:58:44.406Z,89.20
2023-03-28T22:01:14.469Z,88.70
2023-03-28T22:03:42.563Z,90.40
2023-03-28T22:06:10.912Z,90.30
2023-03-28T22:08:39.981Z,90.50
2023-03-28T22:11:16.853Z,90.40
2023-03-28T22:13:47.393Z,91.20
2023-03-28T22:16:15.683Z,91.30
2023-03-28T22:18:49.774Z,91.20
2023-03-28T22:21:18.247Z,91.40
2023-03-28T22:23:47.719Z,90.60
2023-03-28T22:26:16.162Z,90.80
2023-03-28T22:28:44.299Z,90.20
2023-03-28T22:31:12.508Z,90.10
2023-03-28T22:33:40.333Z,90.20
2023-03-28T22:36:08.730Z,90.50
2023-03-28T22:38:37.616Z,87.80
2023-03-28T22:41:07.856Z,87.30
2023-03-28T22:43:36.456Z,87.00
2023-03-28T22:46:05.776Z,87.60
2023-03-28T22:48:33.884Z,88.20
2023-03-28T22:51:01.886Z,88.30
2023-03-28T22:53:30.398Z,89.10
2023-03-28T22:55:58.978Z,89.40
2023-03-28T22:58:27.399Z,89.80
2023-03-28T23:00:55.189Z,90.10
2023-03-28T23:03:23.092Z,89.70
2023-03-28T23:05:51.845Z,89.30
2023-03-28T23:08:19.671Z,88.50
2023-03-28T23:10:48.108Z,88.70
2023-03-28T23:13:16.518Z,89.30
2023-03-28T23:15:44.912Z,90.00
2023-03-28T23:18:12.557Z,90.10
2023-03-28T23:20:40.511Z,89.60
2023-03-28T23:23:08.985Z,89.60
2023-03-28T23:25:37.300Z,89.30
2023-03-28T23:28:05.107Z,88.50
2023-03-28T23:30:32.832Z,88.20
2023-03-28T23:33:00.648Z,88.40
2023-03-28T23:35:28.423Z,88.40
2023-03-28T23:37:56.049Z,88.60
2023-03-28T23:40:24.554Z,90.40
2023-03-28T23:42:52.237Z,89.50
2023-03-28T23:45:19.902Z,90.70
2023-03-28T23:47:47.651Z,90.90
2023-03-28T23:50:15.603Z,90.70
2023-03-28T23:52:43.224Z,91.40
2023-03-28T23:55:10.896Z,90.50
2023-03-28T23:57:38.643Z,91.40
